Moody Air Force Base Valdosta US
ICAO: KVAD
IATA: VAD
Category: Medium
Scheduled Services: No

Elevation: 233 ft
TransAlt. 18000 ft.

Airport Communications:
VALDOSTA APP:119.525
ATIS:27.35
VALDOSTA DEP:126.6
GND:120.625
SOF:143.825
AFSOC COMD POST:22.822
PMSV METRO:26.345
PTD:139.3
TWR:128.45

KVAD Zoom In..

If you have problems with the map follow the link
https://www.worldairports.se/pages/airport.php?
ICAO=KVAD

Runways:

(A) RW 18L length 9300 ft width 150 ft
ILS 109.30 / hdg 183

(B) RW 18R length 8000 ft width 150 ft
---- / hdg 184

(C) RW 36L length 8000 ft width 150 ft
---- / hdg 4

(D) RW 36R length 9300 ft width 150 ft
ILS 109.90 / hdg 3

Location; KVAD
Day. 06 / Time. 13.22 Zulu
* Altimeter: 30.21
* Temperature: 06° c. 42.8°f.
* Wind from: 000° Speed 00 kn.
Dewpoint: 04° c.
Visibility: 3 Statute Miles.
Clouds: Clear (automated report).
Conditions: Mist.

KVAD 061322Z AUTO 00000KT 3SM BR CLR 06/04 A3021 RMK AO2 SLP233 $


Wind - Calm.

 
 
jpsmedia worldairports.se 2019   terms of use